KCOU/COU METAR and TAF weather

Enter ICAO airport designator
Station Type Date Time Source
KCOU METAR 2022/12/01 00:54 UTC NOAA

KCOU 010054Z 28005KT 10SM CLR M02/M11 A3041 RMK AO2 SLP308 T10171111 $


Station Type Date Time Source
KCOU Decoded METAR 2022/12/01 00:54 UTC NOAA

COLUMBIA REGIONAL AIRPORT, MO, United States (KCOU) 38-49N 092-13W 271M
Nov 30, 2022 - 07:54 PM EST / 2022.12.01 0054 UTC
Wind: from the W (280 degrees) at 6 MPH (5 KT):0
Visibility: 10 mile(s):0
Sky conditions: clear
Temperature: 28.9 F (-1.7 C)
Windchill: 23 F (-5 C):1
Dew Point: 12.0 F (-11.1 C)
Relative Humidity: 48%
Pressure (altimeter): 30.41 in. Hg (1029 hPa)
ob: KCOU 010054Z 28005KT 10SM CLR M02/M11 A3041 RMK AO2 SLP308 T10171111
cycle: 1

Station Type Date Time Source
KCOU TAF 2022/11/30 18:06 UTC NOAA

TAF
AMD KCOU 301802Z 3018/0118 29010G23KT P6SM SKC
FM010000 VRB04KT P6SM SKC
FM010500 00000KT P6SM FEW250
FM011300 14007KT P6SM SCT250

Example: see airport list